sensor_id;sensor_type;location;lat;lon;timestamp;pressure;altitude;pressure_sealevel;temperature;humidity
64362;BME280;50685;53.346;-6.296;2022-08-01T00:00:05;101782.78;;;15.77;66.43
64362;BME280;50685;53.346;-6.296;2022-08-01T00:02:32;101797.91;;;15.81;66.41
64362;BME280;50685;53.346;-6.296;2022-08-01T00:04:57;101777.72;;;15.63;66.06
64362;BME280;50685;53.346;-6.296;2022-08-01T00:07:23;101805.13;;;15.76;66.41
64362;BME280;50685;53.346;-6.296;2022-08-01T00:09:48;101794.59;;;15.66;66.24
64362;BME280;50685;53.346;-6.296;2022-08-01T00:12:14;101803.47;;;15.68;66.59
64362;BME280;50685;53.346;-6.296;2022-08-01T00:14:40;101785.00;;;15.53;66.65
64362;BME280;50685;53.346;-6.296;2022-08-01T00:17:06;101796.56;;;15.55;66.62
64362;BME280;50685;53.346;-6.296;2022-08-01T00:19:31;101803.78;;;15.51;66.40
64362;BME280;50685;53.346;-6.296;2022-08-01T00:21:57;101788.66;;;15.49;66.90
64362;BME280;50685;53.346;-6.296;2022-08-01T00:24:23;101760.53;;;15.26;66.85
64362;BME280;50685;53.346;-6.296;2022-08-01T00:26:48;101774.56;;;15.37;66.82
64362;BME280;50685;53.346;-6.296;2022-08-01T00:29:13;101801.97;;;15.52;66.85
64362;BME280;50685;53.346;-6.296;2022-08-01T00:31:39;101768.31;;;15.38;66.48
64362;BME280;50685;53.346;-6.296;2022-08-01T00:34:05;101787.75;;;15.50;66.73
64362;BME280;50685;53.346;-6.296;2022-08-01T00:36:31;101759.47;;;15.36;66.79
64362;BME280;50685;53.346;-6.296;2022-08-01T00:38:56;101778.91;;;15.46;66.55
64362;BME280;50685;53.346;-6.296;2022-08-01T00:41:22;101768.28;;;15.41;66.88
64362;BME280;50685;53.346;-6.296;2022-08-01T00:43:47;101778.06;;;15.41;66.74
64362;BME280;50685;53.346;-6.296;2022-08-01T00:46:13;101764.94;;;15.29;66.72
64362;BME280;50685;53.346;-6.296;2022-08-01T00:48:38;101764.03;;;15.30;66.98
64362;BME280;50685;53.346;-6.296;2022-08-01T00:51:04;101740.25;;;15.13;66.96
64362;BME280;50685;53.346;-6.296;2022-08-01T00:53:30;101763.28;;;15.20;67.22
64362;BME280;50685;53.346;-6.296;2022-08-01T00:55:56;101776.63;;;15.21;67.44
64362;BME280;50685;53.346;-6.296;2022-08-01T00:58:22;101769.63;;;15.14;67.58
64362;BME280;50685;53.346;-6.296;2022-08-01T01:00:48;101783.69;;;15.25;67.62
64362;BME280;50685;53.346;-6.296;2022-08-01T01:03:14;101752.88;;;15.04;67.62
64362;BME280;50685;53.346;-6.296;2022-08-01T01:06:00;101787.38;;;15.18;67.42
64362;BME280;50685;53.346;-6.296;2022-08-01T01:08:32;101766.31;;;15.00;67.79
64362;BME280;50685;53.346;-6.296;2022-08-01T01:11:37;101791.91;;;15.12;67.64
64362;BME280;50685;53.346;-6.296;2022-08-01T01:14:10;101769.03;;;14.95;68.13
64362;BME280;50685;53.346;-6.296;2022-08-01T01:16:40;101759.28;;;14.92;67.96
64362;BME280;50685;53.346;-6.296;2022-08-01T01:19:11;101745.16;;;14.84;68.09
64362;BME280;50685;53.346;-6.296;2022-08-01T01:29:44;101769.09;;;14.90;68.53
64362;BME280;50685;53.346;-6.296;2022-08-01T01:32:17;101783.19;;;15.00;68.42
64362;BME280;50685;53.346;-6.296;2022-08-01T01:34:46;101762.03;;;14.88;68.15
64362;BME280;50685;53.346;-6.296;2022-08-01T01:37:16;101750.53;;;14.83;68.78
64362;BME280;50685;53.346;-6.296;2022-08-01T01:40:01;101762.09;;;14.83;69.28
64362;BME280;50685;53.346;-6.296;2022-08-01T01:42:28;101756.84;;;14.77;69.56
64362;BME280;50685;53.346;-6.296;2022-08-01T01:44:55;101744.63;;;14.59;69.97
64362;BME280;50685;53.346;-6.296;2022-08-01T01:47:23;101752.56;;;14.65;69.79
64362;BME280;50685;53.346;-6.296;2022-08-01T01:49:50;101769.41;;;14.70;69.78
64362;BME280;50685;53.346;-6.296;2022-08-01T01:52:19;101762.31;;;14.65;69.79
64362;BME280;50685;53.346;-6.296;2022-08-01T01:54:48;101728.69;;;14.53;69.66
64362;BME280;50685;53.346;-6.296;2022-08-01T01:57:15;101734.13;;;14.46;69.82
64362;BME280;50685;53.346;-6.296;2022-08-01T01:59:44;101734.94;;;14.50;69.80
64362;BME280;50685;53.346;-6.296;2022-08-01T02:02:11;101744.72;;;14.53;70.00
64362;BME280;50685;53.346;-6.296;2022-08-01T02:04:42;101752.72;;;14.51;70.18
64362;BME280;50685;53.346;-6.296;2022-08-01T02:07:09;101744.78;;;14.45;70.21
64362;BME280;50685;53.346;-6.296;2022-08-01T02:09:37;101751.09;;;14.41;70.37
64362;BME280;50685;53.346;-6.296;2022-08-01T02:12:03;101763.47;;;14.45;70.75
64362;BME280;50685;53.346;-6.296;2022-08-01T02:14:32;101760.91;;;14.40;70.89
64362;BME280;50685;53.346;-6.296;2022-08-01T02:17:00;101760.81;;;14.45;70.97
64362;BME280;50685;53.346;-6.296;2022-08-01T02:19:29;101741.44;;;14.29;71.18
64362;BME280;50685;53.346;-6.296;2022-08-01T02:22:05;101755.56;;;14.40;70.79
64362;BME280;50685;53.346;-6.296;2022-08-01T02:27:34;101747.66;;;14.31;71.08
64362;BME280;50685;53.346;-6.296;2022-08-01T02:30:05;101754.69;;;14.38;70.86
64362;BME280;50685;53.346;-6.296;2022-08-01T02:32:53;101718.50;;;14.17;71.15
64362;BME280;50685;53.346;-6.296;2022-08-01T02:35:27;101736.06;;;14.34;71.01
64362;BME280;50685;53.346;-6.296;2022-08-01T02:37:55;101715.75;;;14.22;71.61
64362;BME280;50685;53.346;-6.296;2022-08-01T02:40:22;101719.41;;;14.16;71.75
64362;BME280;50685;53.346;-6.296;2022-08-01T02:42:50;101709.72;;;14.07;71.79
64362;BME280;50685;53.346;-6.296;2022-08-01T02:45:19;101713.19;;;14.14;71.61
64362;BME280;50685;53.346;-6.296;2022-08-01T02:47:46;101722.09;;;14.14;71.76
64362;BME280;50685;53.346;-6.296;2022-08-01T02:50:14;101722.09;;;14.14;72.11
64362;BME280;50685;53.346;-6.296;2022-08-01T02:52:41;101721.22;;;14.12;72.11
64362;BME280;50685;53.346;-6.296;2022-08-01T02:55:09;101717.63;;;14.15;72.11
64362;BME280;50685;53.346;-6.296;2022-08-01T02:57:36;101709.75;;;14.04;72.18
64362;BME280;50685;53.346;-6.296;2022-08-01T03:00:06;101718.53;;;14.14;72.35
64362;BME280;50685;53.346;-6.296;2022-08-01T03:02:32;101708.78;;;14.11;72.55
64362;BME280;50685;53.346;-6.296;2022-08-01T03:05:00;101711.41;;;14.14;72.63
64362;BME280;50685;53.346;-6.296;2022-08-01T03:07:28;101695.53;;;14.04;72.70
64362;BME280;50685;53.346;-6.296;2022-08-01T03:09:55;101722.91;;;14.18;72.69
64362;BME280;50685;53.346;-6.296;2022-08-01T03:12:25;101725.56;;;14.20;72.47
64362;BME280;50685;53.346;-6.296;2022-08-01T03:14:55;101710.66;;;14.03;72.81
64362;BME280;50685;53.346;-6.296;2022-08-01T03:17:25;101729.25;;;14.09;73.26
64362;BME280;50685;53.346;-6.296;2022-08-01T03:19:52;101728.50;;;13.98;73.26
64362;BME280;50685;53.346;-6.296;2022-08-01T03:22:21;101725.88;;;13.95;73.26
64362;BME280;50685;53.346;-6.296;2022-08-01T03:24:51;101712.63;;;13.87;73.60
64362;BME280;50685;53.346;-6.296;2022-08-01T03:27:19;101710.81;;;13.91;73.63
64362;BME280;50685;53.346;-6.296;2022-08-01T03:29:46;101722.34;;;13.93;73.61
64362;BME280;50685;53.346;-6.296;2022-08-01T03:32:12;101737.44;;;13.94;73.79
64362;BME280;50685;53.346;-6.296;2022-08-01T03:34:39;101703.91;;;13.74;74.08
64362;BME280;50685;53.346;-6.296;2022-08-01T03:37:09;101700.38;;;13.71;74.20
64362;BME280;50685;53.346;-6.296;2022-08-01T03:39:50;101718.09;;;13.75;74.20
64362;BME280;50685;53.346;-6.296;2022-08-01T03:42:20;101708.41;;;13.66;74.50
64362;BME280;50685;53.346;-6.296;2022-08-01T03:44:53;101719.88;;;13.73;74.49
64362;BME280;50685;53.346;-6.296;2022-08-01T03:47:22;101735.84;;;13.79;74.43
64362;BME280;50685;53.346;-6.296;2022-08-01T03:49:50;101713.78;;;13.64;74.61
64362;BME280;50685;53.346;-6.296;2022-08-01T03:52:18;101716.41;;;13.66;74.74
64362;BME280;50685;53.346;-6.296;2022-08-01T03:54:47;101692.56;;;13.54;74.68
64362;BME280;50685;53.346;-6.296;2022-08-01T03:57:14;101695.28;;;13.49;74.46
64362;BME280;50685;53.346;-6.296;2022-08-01T03:59:40;101720.03;;;13.62;74.57
64362;BME280;50685;53.346;-6.296;2022-08-01T04:02:06;101705.91;;;13.52;74.43
64362;BME280;50685;53.346;-6.296;2022-08-01T04:04:32;101704.16;;;13.49;74.70
64362;BME280;50685;53.346;-6.296;2022-08-01T04:06:58;101703.31;;;13.44;74.70
64362;BME280;50685;53.346;-6.296;2022-08-01T04:09:30;101695.34;;;13.43;74.95
64362;BME280;50685;53.346;-6.296;2022-08-01T04:11:56;101689.13;;;13.41;75.20
64362;BME280;50685;53.346;-6.296;2022-08-01T04:14:21;101676.75;;;13.32;75.61
64362;BME280;50685;53.346;-6.296;2022-08-01T04:16:47;101687.44;;;13.30;75.55
64362;BME280;50685;53.346;-6.296;2022-08-01T04:19:12;101692.72;;;13.35;75.88
64362;BME280;50685;53.346;-6.296;2022-08-01T04:21:38;101673.25;;;13.27;75.67
64362;BME280;50685;53.346;-6.296;2022-08-01T04:24:09;101695.44;;;13.30;76.12
64362;BME280;50685;53.346;-6.296;2022-08-01T04:26:36;101689.22;;;13.28;76.26
64362;BME280;50685;53.346;-6.296;2022-08-01T04:29:04;101713.13;;;13.42;75.98
64362;BME280;50685;53.346;-6.296;2022-08-01T04:31:32;101717.56;;;13.43;76.38
64362;BME280;50685;53.346;-6.296;2022-08-01T04:33:59;101715.81;;;13.33;76.68
64362;BME280;50685;53.346;-6.296;2022-08-01T04:36:28;101708.78;;;13.27;76.52
64362;BME280;50685;53.346;-6.296;2022-08-01T04:38:57;101687.59;;;13.12;76.81
64362;BME280;50685;53.346;-6.296;2022-08-01T04:41:25;101684.97;;;13.10;77.41
64362;BME280;50685;53.346;-6.296;2022-08-01T04:43:51;101683.13;;;13.17;77.00
64362;BME280;50685;53.346;-6.296;2022-08-01T04:46:17;101680.50;;;13.14;76.81
64362;BME280;50685;53.346;-6.296;2022-08-01T04:48:44;101686.63;;;13.22;77.11
64362;BME280;50685;53.346;-6.296;2022-08-01T04:51:15;101685.75;;;13.18;76.96
64362;BME280;50685;53.346;-6.296;2022-08-01T04:53:41;101678.75;;;13.08;77.51
64362;BME280;50685;53.346;-6.296;2022-08-01T04:56:06;101684.06;;;13.13;77.66
64362;BME280;50685;53.346;-6.296;2022-08-01T04:58:32;101655.75;;;12.99;77.42
64362;BME280;50685;53.346;-6.296;2022-08-01T05:00:57;101653.09;;;12.99;77.36
64362;BME280;50685;53.346;-6.296;2022-08-01T05:03:23;101684.06;;;13.11;77.13
64362;BME280;50685;53.346;-6.296;2022-08-01T05:05:48;101691.16;;;13.11;77.49
64362;BME280;50685;53.346;-6.296;2022-08-01T05:08:14;101662.94;;;12.90;77.64
64362;BME280;50685;53.346;-6.296;2022-08-01T05:10:39;101690.31;;;13.06;77.73
64362;BME280;50685;53.346;-6.296;2022-08-01T05:13:05;101654.09;;;12.86;77.89
64362;BME280;50685;53.346;-6.296;2022-08-01T05:15:31;101660.25;;;12.91;78.49
64362;BME280;50685;53.346;-6.296;2022-08-01T05:17:57;101682.44;;;12.95;78.35
64362;BME280;50685;53.346;-6.296;2022-08-01T05:20:22;101670.94;;;12.86;78.42
64362;BME280;50685;53.346;-6.296;2022-08-01T05:22:48;101688.63;;;12.97;78.56
64362;BME280;50685;53.346;-6.296;2022-08-01T05:27:58;101705.41;;;13.05;78.43
64362;BME280;50685;53.346;-6.296;2022-08-01T05:30:24;101696.56;;;13.03;78.75
64362;BME280;50685;53.346;-6.296;2022-08-01T05:32:49;101706.22;;;13.13;78.77
64362;BME280;50685;53.346;-6.296;2022-08-01T05:35:14;101688.59;;;13.01;78.63
64362;BME280;50685;53.346;-6.296;2022-08-01T05:37:40;101688.53;;;13.06;78.16
64362;BME280;50685;53.346;-6.296;2022-08-01T05:40:06;101707.06;;;13.22;78.42
64362;BME280;50685;53.346;-6.296;2022-08-01T05:42:31;101700.00;;;13.17;78.37
64362;BME280;50685;53.346;-6.296;2022-08-01T05:44:57;101698.13;;;13.26;78.45
64362;BME280;50685;53.346;-6.296;2022-08-01T05:47:22;101691.94;;;13.22;78.53
64362;BME280;50685;53.346;-6.296;2022-08-01T05:49:48;101674.16;;;13.24;78.23
64362;BME280;50685;53.346;-6.296;2022-08-01T05:52:14;101682.09;;;13.32;78.21
64362;BME280;50685;53.346;-6.296;2022-08-01T05:54:39;101686.47;;;13.42;78.40
64362;BME280;50685;53.346;-6.296;2022-08-01T05:57:05;101660.81;;;13.29;78.09
64362;BME280;50685;53.346;-6.296;2022-08-01T05:59:31;101667.84;;;13.36;78.50
64362;BME280;50685;53.346;-6.296;2022-08-01T06:01:57;101685.47;;;13.53;78.76
64362;BME280;50685;53.346;-6.296;2022-08-01T06:04:22;101667.75;;;13.48;78.67
64362;BME280;50685;53.346;-6.296;2022-08-01T06:06:48;101649.94;;;13.50;78.48
64362;BME280;50685;53.346;-6.296;2022-08-01T06:09:14;101649.91;;;13.54;78.92
64362;BME280;50685;53.346;-6.296;2022-08-01T06:11:39;101663.09;;;13.66;78.75
64362;BME280;50685;53.346;-6.296;2022-08-01T06:14:05;101653.34;;;13.63;78.52
64362;BME280;50685;53.346;-6.296;2022-08-01T06:16:31;101662.09;;;13.76;78.59
64362;BME280;50685;53.346;-6.296;2022-08-01T06:18:56;101632.84;;;13.69;78.52
64362;BME280;50685;53.346;-6.296;2022-08-01T06:21:21;101644.28;;;13.81;78.51
64362;BME280;50685;53.346;-6.296;2022-08-01T06:23:47;101645.03;;;13.91;77.94
64362;BME280;50685;53.346;-6.296;2022-08-01T06:26:12;101651.91;;;14.08;77.72
64362;BME280;50685;53.346;-6.296;2022-08-01T06:28:38;101649.06;;;14.20;77.38
64362;BME280;50685;53.346;-6.296;2022-08-01T06:31:04;101661.38;;;14.32;76.88
64362;BME280;50685;53.346;-6.296;2022-08-01T06:33:30;101654.03;;;14.46;77.08
64362;BME280;50685;53.346;-6.296;2022-08-01T06:35:56;101637.84;;;14.59;76.52
64362;BME280;50685;53.346;-6.296;2022-08-01T06:38:22;101653.53;;;14.81;75.95
64362;BME280;50685;53.346;-6.296;2022-08-01T06:40:48;101626.81;;;14.81;75.15
64362;BME280;50685;53.346;-6.296;2022-08-01T06:43:13;101610.69;;;14.88;74.60
64362;BME280;50685;53.346;-6.296;2022-08-01T06:45:39;101631.75;;;15.04;74.64
64362;BME280;50685;53.346;-6.296;2022-08-01T06:48:05;101637.13;;;15.02;74.13
64362;BME280;50685;53.346;-6.296;2022-08-01T06:50:31;101615.81;;;14.99;74.21
64362;BME280;50685;53.346;-6.296;2022-08-01T06:52:57;101628.75;;;15.24;73.56
64362;BME280;50685;53.346;-6.296;2022-08-01T06:55:22;101618.72;;;15.35;73.31
64362;BME280;50685;53.346;-6.296;2022-08-01T06:57:50;101629.91;;;15.54;73.17
64362;BME280;50685;53.346;-6.296;2022-08-01T07:00:35;101620.84;;;15.62;72.49
64362;BME280;50685;53.346;-6.296;2022-08-01T07:03:01;101632.91;;;15.83;72.22
64362;BME280;50685;53.346;-6.296;2022-08-01T07:05:26;101614.06;;;15.89;71.55
64362;BME280;50685;53.346;-6.296;2022-08-01T07:07:52;101630.41;;;16.16;71.05
64362;BME280;50685;53.346;-6.296;2022-08-01T07:10:18;101627.59;;;16.24;70.88
64362;BME280;50685;53.346;-6.296;2022-08-01T07:12:43;101618.38;;;16.35;70.43
64362;BME280;50685;53.346;-6.296;2022-08-01T07:15:10;101616.00;;;16.61;70.01
64362;BME280;50685;53.346;-6.296;2022-08-01T07:17:38;101634.91;;;16.89;69.49
64362;BME280;50685;53.346;-6.296;2022-08-01T07:20:05;101627.44;;;17.04;68.77
64362;BME280;50685;53.346;-6.296;2022-08-01T07:22:33;101626.19;;;17.17;68.24
64362;BME280;50685;53.346;-6.296;2022-08-01T07:24:58;101636.22;;;17.42;67.67
64362;BME280;50685;53.346;-6.296;2022-08-01T07:27:23;101625.97;;;17.56;67.18
64362;BME280;50685;53.346;-6.296;2022-08-01T07:29:49;101628.88;;;17.80;66.31
64362;BME280;50685;53.346;-6.296;2022-08-01T07:32:14;101636.31;;;18.02;65.81
64362;BME280;50685;53.346;-6.296;2022-08-01T07:34:40;101621.75;;;18.10;65.64
64362;BME280;50685;53.346;-6.296;2022-08-01T07:37:05;101609.13;;;18.12;62.73
64362;BME280;50685;53.346;-6.296;2022-08-01T07:39:31;101628.09;;;18.36;63.83
64362;BME280;50685;53.346;-6.296;2022-08-01T07:41:56;101629.47;;;18.50;64.17
64362;BME280;50685;53.346;-6.296;2022-08-01T07:44:22;101611.97;;;18.63;62.90
64362;BME280;50685;53.346;-6.296;2022-08-01T07:46:48;101621.03;;;18.87;63.06
64362;BME280;50685;53.346;-6.296;2022-08-01T07:49:14;101625.75;;;19.07;62.39
64362;BME280;50685;53.346;-6.296;2022-08-01T07:51:39;101611.47;;;19.31;62.22
64362;BME280;50685;53.346;-6.296;2022-08-01T07:54:05;101624.13;;;19.52;61.11
64362;BME280;50685;53.346;-6.296;2022-08-01T07:56:32;101624.97;;;19.54;60.35
64362;BME280;50685;53.346;-6.296;2022-08-01T07:58:57;101608.69;;;19.57;58.60
64362;BME280;50685;53.346;-6.296;2022-08-01T08:01:23;101615.19;;;19.75;59.74
64362;BME280;50685;53.346;-6.296;2022-08-01T08:03:48;101594.06;;;19.88;59.65
64362;BME280;50685;53.346;-6.296;2022-08-01T08:06:14;101584.47;;;20.05;57.96
64362;BME280;50685;53.346;-6.296;2022-08-01T08:08:39;101603.84;;;20.37;58.53
64362;BME280;50685;53.346;-6.296;2022-08-01T08:11:05;101595.56;;;20.64;57.71
64362;BME280;50685;53.346;-6.296;2022-08-01T08:13:30;101592.84;;;20.86;57.69
64362;BME280;50685;53.346;-6.296;2022-08-01T08:15:57;101578.84;;;21.17;56.60
64362;BME280;50685;53.346;-6.296;2022-08-01T08:18:24;101588.38;;;21.26;54.99
64362;BME280;50685;53.346;-6.296;2022-08-01T08:20:49;101578.59;;;21.24;54.15
64362;BME280;50685;53.346;-6.296;2022-08-01T08:23:14;101574.66;;;21.31;54.37
64362;BME280;50685;53.346;-6.296;2022-08-01T08:25:59;101578.00;;;21.17;54.52
64362;BME280;50685;53.346;-6.296;2022-08-01T08:28:24;101572.41;;;21.22;51.64
64362;BME280;50685;53.346;-6.296;2022-08-01T08:30:50;101553.50;;;21.61;52.82
64362;BME280;50685;53.346;-6.296;2022-08-01T08:33:16;101568.78;;;22.18;51.86
64362;BME280;50685;53.346;-6.296;2022-08-01T08:35:42;101569.03;;;22.50;50.85
64362;BME280;50685;53.346;-6.296;2022-08-01T08:38:07;101575.78;;;22.59;50.30
64362;BME280;50685;53.346;-6.296;2022-08-01T08:40:35;101564.13;;;22.58;48.03
64362;BME280;50685;53.346;-6.296;2022-08-01T08:43:03;101564.03;;;22.95;48.36
64362;BME280;50685;53.346;-6.296;2022-08-01T08:45:29;101551.13;;;23.18;47.36
64362;BME280;50685;53.346;-6.296;2022-08-01T08:47:55;101554.19;;;23.45;48.65
64362;BME280;50685;53.346;-6.296;2022-08-01T08:50:24;101569.84;;;23.88;45.81
64362;BME280;50685;53.346;-6.296;2022-08-01T08:52:52;101546.59;;;23.84;45.63
64362;BME280;50685;53.346;-6.296;2022-08-01T08:55:19;101548.34;;;23.53;46.48
64362;BME280;50685;53.346;-6.296;2022-08-01T08:57:46;101533.88;;;23.36;46.73
64362;BME280;50685;53.346;-6.296;2022-08-01T09:38:18;101522.09;;;25.23;41.46
64362;BME280;50685;53.346;-6.296;2022-08-01T09:40:45;101504.28;;;25.48;41.73
64362;BME280;50685;53.346;-6.296;2022-08-01T09:43:11;101522.72;;;25.85;42.04
64362;BME280;50685;53.346;-6.296;2022-08-01T09:45:37;101512.22;;;26.07;41.86
64362;BME280;50685;53.346;-6.296;2022-08-01T09:48:08;101513.91;;;26.23;40.40
64362;BME280;50685;53.346;-6.296;2022-08-01T09:50:46;101508.28;;;26.39;39.60
64362;BME280;50685;53.346;-6.296;2022-08-01T09:53:13;101491.31;;;26.35;40.14
64362;BME280;50685;53.346;-6.296;2022-08-01T09:55:40;101492.41;;;26.33;39.84
64362;BME280;50685;53.346;-6.296;2022-08-01T09:58:06;101488.00;;;26.17;40.87
64362;BME280;50685;53.346;-6.296;2022-08-01T10:00:34;101496.53;;;26.38;41.24
64362;BME280;50685;53.346;-6.296;2022-08-01T10:03:00;101493.50;;;26.43;40.14
64362;BME280;50685;53.346;-6.296;2022-08-01T10:06:21;101485.75;;;26.37;40.29
64362;BME280;50685;53.346;-6.296;2022-08-01T10:08:48;101487.88;;;26.19;40.63
64362;BME280;50685;53.346;-6.296;2022-08-01T10:11:16;101485.41;;;25.74;41.12
64362;BME280;50685;53.346;-6.296;2022-08-01T10:13:42;101477.31;;;25.45;42.18
64362;BME280;50685;53.346;-6.296;2022-08-01T10:16:08;101473.81;;;25.28;42.52
64362;BME280;50685;53.346;-6.296;2022-08-01T10:18:35;101479.84;;;25.48;42.49
64362;BME280;50685;53.346;-6.296;2022-08-01T10:21:03;101474.19;;;25.37;41.21
64362;BME280;50685;53.346;-6.296;2022-08-01T10:23:33;101467.03;;;25.36;42.40
64362;BME280;50685;53.346;-6.296;2022-08-01T10:26:00;101467.97;;;25.49;42.10
64362;BME280;50685;53.346;-6.296;2022-08-01T10:28:30;101460.72;;;25.49;40.02
64362;BME280;50685;53.346;-6.296;2022-08-01T10:30:59;101464.50;;;25.47;40.26
64362;BME280;50685;53.346;-6.296;2022-08-01T10:33:25;101465.75;;;25.56;40.30
64362;BME280;50685;53.346;-6.296;2022-08-01T10:35:51;101444.38;;;25.64;40.02
64362;BME280;50685;53.346;-6.296;2022-08-01T10:38:17;101448.44;;;25.71;39.09
64362;BME280;50685;53.346;-6.296;2022-08-01T10:40:43;101449.66;;;25.80;39.87
64362;BME280;50685;53.346;-6.296;2022-08-01T10:43:12;101455.44;;;25.88;38.77
64362;BME280;50685;53.346;-6.296;2022-08-01T10:45:42;101461.28;;;25.82;39.10
64362;BME280;50685;53.346;-6.296;2022-08-01T10:48:20;101436.72;;;25.56;38.88
64362;BME280;50685;53.346;-6.296;2022-08-01T10:50:52;101436.53;;;25.59;39.99
64362;BME280;50685;53.346;-6.296;2022-08-01T10:53:23;101436.47;;;25.46;39.18
64362;BME280;50685;53.346;-6.296;2022-08-01T11:03:35;101432.53;;;25.09;40.44
64362;BME280;50685;53.346;-6.296;2022-08-01T11:06:03;101423.22;;;24.98;41.27
64362;BME280;50685;53.346;-6.296;2022-08-01T11:08:30;101420.22;;;24.89;41.38
64362;BME280;50685;53.346;-6.296;2022-08-01T11:11:00;101403.34;;;24.69;41.71
64362;BME280;50685;53.346;-6.296;2022-08-01T11:16:31;101409.84;;;24.52;42.56
64362;BME280;50685;53.346;-6.296;2022-08-01T11:18:57;101419.75;;;24.67;42.85
64362;BME280;50685;53.346;-6.296;2022-08-01T11:27:19;101407.75;;;24.72;43.83
64362;BME280;50685;53.346;-6.296;2022-08-01T11:30:26;101405.44;;;24.49;44.28
64362;BME280;50685;53.346;-6.296;2022-08-01T11:33:18;101398.34;;;24.18;45.59
64362;BME280;50685;53.346;-6.296;2022-08-01T11:41:34;101373.66;;;23.30;47.25
64362;BME280;50685;53.346;-6.296;2022-08-01T11:44:09;101378.09;;;23.15;48.01
64362;BME280;50685;53.346;-6.296;2022-08-01T11:46:53;101389.31;;;23.24;48.37
64362;BME280;50685;53.346;-6.296;2022-08-01T11:55:30;101372.59;;;23.00;50.20
64362;BME280;50685;53.346;-6.296;2022-08-01T11:58:20;101378.53;;;22.91;52.62
64362;BME280;50685;53.346;-6.296;2022-08-01T12:00:51;101368.75;;;22.55;53.49
64362;BME280;50685;53.346;-6.296;2022-08-01T12:03:26;101385.09;;;22.69;52.99
64362;BME280;50685;53.346;-6.296;2022-08-01T12:05:53;101349.22;;;22.50;53.01
64362;BME280;50685;53.346;-6.296;2022-08-01T12:08:30;101338.06;;;22.56;53.08
64362;BME280;50685;53.346;-6.296;2022-08-01T12:10:58;101364.28;;;22.71;52.90
64362;BME280;50685;53.346;-6.296;2022-08-01T12:13:24;101354.66;;;22.66;53.07
64362;BME280;50685;53.346;-6.296;2022-08-01T12:15:50;101355.31;;;22.53;53.05
64362;BME280;50685;53.346;-6.296;2022-08-01T12:18:16;101348.78;;;22.57;52.44
64362;BME280;50685;53.346;-6.296;2022-08-01T12:20:43;101343.75;;;22.67;51.95
64362;BME280;50685;53.346;-6.296;2022-08-01T12:23:12;101332.59;;;22.73;51.62
64362;BME280;50685;53.346;-6.296;2022-08-01T12:25:38;101331.19;;;22.66;51.73
64362;BME280;50685;53.346;-6.296;2022-08-01T12:28:09;101324.13;;;22.79;51.50
64362;BME280;50685;53.346;-6.296;2022-08-01T12:30:36;101299.72;;;22.81;51.56
64362;BME280;50685;53.346;-6.296;2022-08-01T12:33:07;101308.19;;;22.91;51.08
64362;BME280;50685;53.346;-6.296;2022-08-01T12:35:35;101312.25;;;22.98;51.41
64362;BME280;50685;53.346;-6.296;2022-08-01T12:38:04;101304.94;;;22.84;51.33
64362;BME280;50685;53.346;-6.296;2022-08-01T12:40:32;101303.19;;;22.83;51.86
64362;BME280;50685;53.346;-6.296;2022-08-01T12:43:05;101317.25;;;22.90;52.16
64362;BME280;50685;53.346;-6.296;2022-08-01T12:48:59;101305.13;;;23.13;51.58
64362;BME280;50685;53.346;-6.296;2022-08-01T12:51:24;101285.56;;;23.08;51.50
64362;BME280;50685;53.346;-6.296;2022-08-01T12:53:50;101299.16;;;23.38;51.12
64362;BME280;50685;53.346;-6.296;2022-08-01T12:56:15;101289.13;;;23.40;50.83
64362;BME280;50685;53.346;-6.296;2022-08-01T13:33:48;101244.59;;;22.52;55.97
64362;BME280;50685;53.346;-6.296;2022-08-01T13:36:17;101251.66;;;22.37;56.50
64362;BME280;50685;53.346;-6.296;2022-08-01T13:38:43;101242.75;;;22.19;57.13
64362;BME280;50685;53.346;-6.296;2022-08-01T13:41:27;101255.00;;;22.08;57.73
64362;BME280;50685;53.346;-6.296;2022-08-01T13:43:55;101266.13;;;22.20;57.76
64362;BME280;50685;53.346;-6.296;2022-08-01T13:46:20;101234.53;;;22.04;57.90
64362;BME280;50685;53.346;-6.296;2022-08-01T13:48:46;101265.22;;;22.19;58.04
64362;BME280;50685;53.346;-6.296;2022-08-01T13:51:12;101250.31;;;22.12;58.04
64362;BME280;50685;53.346;-6.296;2022-08-01T13:53:37;101220.06;;;22.05;58.08
64362;BME280;50685;53.346;-6.296;2022-08-01T13:56:03;101222.84;;;22.04;58.42
64362;BME280;50685;53.346;-6.296;2022-08-01T13:58:28;101208.00;;;21.95;58.42
64362;BME280;50685;53.346;-6.296;2022-08-01T20:17:09;100826.88;;;20.23;75.93
64362;BME280;50685;53.346;-6.296;2022-08-01T20:19:41;100797.50;;;20.01;76.32
64362;BME280;50685;53.346;-6.296;2022-08-01T20:22:07;100825.06;;;20.06;76.70
64362;BME280;50685;53.346;-6.296;2022-08-01T20:24:38;100800.34;;;19.98;77.42
64362;BME280;50685;53.346;-6.296;2022-08-01T20:27:03;100803.44;;;19.90;77.67
64362;BME280;50685;53.346;-6.296;2022-08-01T20:29:30;100817.00;;;19.89;77.75
64362;BME280;50685;53.346;-6.296;2022-08-01T20:31:56;100819.97;;;19.83;78.14
64362;BME280;50685;53.346;-6.296;2022-08-01T20:34:23;100799.69;;;19.75;78.06
64362;BME280;50685;53.346;-6.296;2022-08-01T20:36:50;100809.16;;;19.84;77.98
64362;BME280;50685;53.346;-6.296;2022-08-01T20:39:20;100817.28;;;19.83;77.90
64362;BME280;50685;53.346;-6.296;2022-08-01T20:41:48;100808.00;;;19.71;78.26
64362;BME280;50685;53.346;-6.296;2022-08-01T20:44:19;100858.84;;;19.95;78.13
64362;BME280;50685;53.346;-6.296;2022-08-01T20:46:47;100822.53;;;19.86;78.28
64362;BME280;50685;53.346;-6.296;2022-08-01T20:49:13;100808.72;;;19.74;77.91
64362;BME280;50685;53.346;-6.296;2022-08-01T20:51:39;100793.28;;;19.78;78.21
64362;BME280;50685;53.346;-6.296;2022-08-01T20:54:05;100811.59;;;19.89;77.86
64362;BME280;50685;53.346;-6.296;2022-08-01T20:56:45;100799.47;;;19.80;77.50
64362;BME280;50685;53.346;-6.296;2022-08-01T21:02:15;100809.88;;;19.88;77.94